sensor_id;sensor_type;location;lat;lon;timestamp;pressure;altitude;pressure_sealevel;temperature;humidity
7168;BME280;3625;51.762;14.320;2023-07-29T00:00:39;100007.97;;;17.86;100.00
7168;BME280;3625;51.762;14.320;2023-07-29T00:03:08;99998.13;;;17.86;100.00
7168;BME280;3625;51.762;14.320;2023-07-29T00:05:37;99889.38;;;17.25;100.00
7168;BME280;3625;51.762;14.320;2023-07-29T00:08:09;100000.63;;;17.89;100.00
7168;BME280;3625;51.762;14.320;2023-07-29T00:10:38;99995.28;;;17.89;100.00
7168;BME280;3625;51.762;14.320;2023-07-29T00:13:07;100000.72;;;17.88;100.00
7168;BME280;3625;51.762;14.320;2023-07-29T00:15:36;99993.81;;;17.84;100.00
7168;BME280;3625;51.762;14.320;2023-07-29T00:18:07;99947.19;;;17.42;100.00
7168;BME280;3625;51.762;14.320;2023-07-29T00:20:36;99995.94;;;17.63;100.00
7168;BME280;3625;51.762;14.320;2023-07-29T00:23:08;99693.25;;;15.75;100.00
7168;BME280;3625;51.762;14.320;2023-07-29T00:25:37;99882.19;;;16.80;100.00
7168;BME280;3625;51.762;14.320;2023-07-29T00:28:06;99990.06;;;17.41;100.00
7168;BME280;3625;51.762;14.320;2023-07-29T00:30:43;99693.88;;;15.65;100.00
7168;BME280;3625;51.762;14.320;2023-07-29T00:33:13;99979.03;;;17.31;100.00
7168;BME280;3625;51.762;14.320;2023-07-29T00:35:41;99978.53;;;17.24;100.00
7168;BME280;3625;51.762;14.320;2023-07-29T00:38:13;99966.63;;;17.14;100.00
7168;BME280;3625;51.762;14.320;2023-07-29T00:40:46;99735.91;;;15.75;100.00
7168;BME280;3625;51.762;14.320;2023-07-29T00:43:15;99968.66;;;17.11;100.00
7168;BME280;3625;51.762;14.320;2023-07-29T00:45:52;99837.28;;;16.24;100.00
7168;BME280;3625;51.762;14.320;2023-07-29T00:48:25;99975.88;;;17.09;100.00
7168;BME280;3625;51.762;14.320;2023-07-29T00:50:57;99854.75;;;16.30;100.00
7168;BME280;3625;51.762;14.320;2023-07-29T00:53:28;99893.28;;;16.57;100.00
7168;BME280;3625;51.762;14.320;2023-07-29T00:56:00;99846.84;;;16.28;100.00
7168;BME280;3625;51.762;14.320;2023-07-29T00:58:30;99972.94;;;16.97;100.00
7168;BME280;3625;51.762;14.320;2023-07-29T01:00:59;99975.63;;;16.97;100.00
7168;BME280;3625;51.762;14.320;2023-07-29T01:03:29;99973.81;;;16.98;100.00
7168;BME280;3625;51.762;14.320;2023-07-29T01:06:13;99942.19;;;16.75;100.00
7168;BME280;3625;51.762;14.320;2023-07-29T01:08:56;99950.63;;;16.83;100.00
7168;BME280;3625;51.762;14.320;2023-07-29T01:11:45;99916.88;;;16.49;100.00
7168;BME280;3625;51.762;14.320;2023-07-29T01:14:54;99869.69;;;16.34;100.00
7168;BME280;3625;51.762;14.320;2023-07-29T01:17:49;99954.16;;;16.83;100.00
7168;BME280;3625;51.762;14.320;2023-07-29T01:20:23;99877.34;;;16.40;100.00
7168;BME280;3625;51.762;14.320;2023-07-29T01:22:54;99930.78;;;16.71;100.00
7168;BME280;3625;51.762;14.320;2023-07-29T01:25:27;99750.72;;;15.65;100.00
7168;BME280;3625;51.762;14.320;2023-07-29T01:27:59;99946.31;;;16.80;100.00
7168;BME280;3625;51.762;14.320;2023-07-29T01:30:38;99849.00;;;16.21;100.00
7168;BME280;3625;51.762;14.320;2023-07-29T01:33:16;99859.25;;;16.29;100.00
7168;BME280;3625;51.762;14.320;2023-07-29T01:35:54;99606.34;;;14.91;100.00
7168;BME280;3625;51.762;14.320;2023-07-29T01:38:48;99745.53;;;15.62;100.00
7168;BME280;3625;51.762;14.320;2023-07-29T01:41:21;99769.06;;;15.71;100.00
7168;BME280;3625;51.762;14.320;2023-07-29T01:44:23;99825.56;;;16.11;100.00
7168;BME280;3625;51.762;14.320;2023-07-29T01:46:56;99941.41;;;16.73;100.00
7168;BME280;3625;51.762;14.320;2023-07-29T01:49:30;99711.91;;;15.27;100.00
7168;BME280;3625;51.762;14.320;2023-07-29T01:52:01;99938.59;;;16.58;100.00
7168;BME280;3625;51.762;14.320;2023-07-29T01:54:32;99877.56;;;16.19;100.00
7168;BME280;3625;51.762;14.320;2023-07-29T01:57:01;99932.97;;;16.47;100.00
7168;BME280;3625;51.762;14.320;2023-07-29T01:59:35;99961.16;;;16.53;100.00
7168;BME280;3625;51.762;14.320;2023-07-29T02:02:07;99898.69;;;16.24;100.00
7168;BME280;3625;51.762;14.320;2023-07-29T02:04:37;99943.66;;;16.47;100.00
7168;BME280;3625;51.762;14.320;2023-07-29T02:07:12;99951.41;;;16.52;100.00
7168;BME280;3625;51.762;14.320;2023-07-29T02:09:41;99962.34;;;16.47;100.00
7168;BME280;3625;51.762;14.320;2023-07-29T02:12:16;99953.56;;;16.45;100.00
7168;BME280;3625;51.762;14.320;2023-07-29T02:14:58;99668.22;;;14.79;100.00
7168;BME280;3625;51.762;14.320;2023-07-29T02:17:42;99951.94;;;16.43;100.00
7168;BME280;3625;51.762;14.320;2023-07-29T02:20:14;99950.09;;;16.43;100.00
7168;BME280;3625;51.762;14.320;2023-07-29T02:22:50;99956.56;;;16.39;100.00
7168;BME280;3625;51.762;14.320;2023-07-29T02:25:27;99905.88;;;16.06;100.00
7168;BME280;3625;51.762;14.320;2023-07-29T02:27:58;99754.56;;;15.09;100.00
7168;BME280;3625;51.762;14.320;2023-07-29T02:30:30;99957.84;;;16.32;100.00
7168;BME280;3625;51.762;14.320;2023-07-29T02:33:03;99820.03;;;15.48;100.00
7168;BME280;3625;51.762;14.320;2023-07-29T02:35:32;99817.34;;;15.48;100.00
7168;BME280;3625;51.762;14.320;2023-07-29T02:38:03;99964.38;;;16.27;100.00
7168;BME280;3625;51.762;14.320;2023-07-29T02:40:32;99961.88;;;16.23;100.00
7168;BME280;3625;51.762;14.320;2023-07-29T02:43:03;99712.16;;;14.70;100.00
7168;BME280;3625;51.762;14.320;2023-07-29T02:45:35;99693.25;;;14.59;100.00
7168;BME280;3625;51.762;14.320;2023-07-29T02:48:13;99899.25;;;15.80;100.00
7168;BME280;3625;51.762;14.320;2023-07-29T02:50:41;99957.19;;;16.11;100.00
7168;BME280;3625;51.762;14.320;2023-07-29T02:53:16;99976.31;;;16.19;100.00
7168;BME280;3625;51.762;14.320;2023-07-29T02:55:51;99818.81;;;15.21;100.00
7168;BME280;3625;51.762;14.320;2023-07-29T02:58:22;99832.34;;;15.33;100.00
7168;BME280;3625;51.762;14.320;2023-07-29T03:00:52;99906.38;;;15.80;100.00
7168;BME280;3625;51.762;14.320;2023-07-29T03:03:28;99986.50;;;16.29;100.00
7168;BME280;3625;51.762;14.320;2023-07-29T03:06:03;99923.53;;;15.92;100.00
7168;BME280;3625;51.762;14.320;2023-07-29T03:08:34;99857.09;;;15.54;100.00
7168;BME280;3625;51.762;14.320;2023-07-29T03:11:06;99831.72;;;15.45;100.00
7168;BME280;3625;51.762;14.320;2023-07-29T03:13:45;99683.47;;;14.60;100.00
7168;BME280;3625;51.762;14.320;2023-07-29T03:16:18;99773.28;;;15.08;100.00
7168;BME280;3625;51.762;14.320;2023-07-29T03:18:58;99885.28;;;15.75;100.00
7168;BME280;3625;51.762;14.320;2023-07-29T03:21:39;99990.50;;;16.37;100.00
7168;BME280;3625;51.762;14.320;2023-07-29T03:24:10;99994.97;;;16.37;100.00
7168;BME280;3625;51.762;14.320;2023-07-29T03:26:38;99830.41;;;15.37;100.00
7168;BME280;3625;51.762;14.320;2023-07-29T03:29:13;99806.09;;;15.26;100.00
7168;BME280;3625;51.762;14.320;2023-07-29T03:31:49;99820.75;;;15.34;100.00
7168;BME280;3625;51.762;14.320;2023-07-29T03:34:21;99993.78;;;16.42;100.00
7168;BME280;3625;51.762;14.320;2023-07-29T03:36:52;99716.09;;;14.81;100.00
7168;BME280;3625;51.762;14.320;2023-07-29T03:39:23;99760.34;;;15.00;100.00
7168;BME280;3625;51.762;14.320;2023-07-29T03:41:52;99814.09;;;15.43;100.00
7168;BME280;3625;51.762;14.320;2023-07-29T03:44:23;99990.53;;;16.53;100.00
7168;BME280;3625;51.762;14.320;2023-07-29T03:46:55;99967.25;;;16.39;100.00
7168;BME280;3625;51.762;14.320;2023-07-29T03:49:26;99992.09;;;16.57;100.00
7168;BME280;3625;51.762;14.320;2023-07-29T03:51:55;99861.69;;;15.68;100.00
7168;BME280;3625;51.762;14.320;2023-07-29T03:54:24;99998.06;;;16.62;100.00
7168;BME280;3625;51.762;14.320;2023-07-29T03:56:52;99996.72;;;16.71;100.00
7168;BME280;3625;51.762;14.320;2023-07-29T03:59:21;99998.97;;;16.78;100.00
7168;BME280;3625;51.762;14.320;2023-07-29T04:01:50;99992.25;;;16.87;100.00
7168;BME280;3625;51.762;14.320;2023-07-29T04:04:21;99992.34;;;17.01;100.00
7168;BME280;3625;51.762;14.320;2023-07-29T04:06:52;99923.91;;;16.83;100.00
7168;BME280;3625;51.762;14.320;2023-07-29T04:09:20;99847.19;;;16.53;100.00
7168;BME280;3625;51.762;14.320;2023-07-29T04:11:51;99803.38;;;16.42;100.00
7168;BME280;3625;51.762;14.320;2023-07-29T04:14:20;99984.72;;;17.72;100.00
7168;BME280;3625;51.762;14.320;2023-07-29T04:16:50;99969.16;;;17.79;100.00
7168;BME280;3625;51.762;14.320;2023-07-29T04:19:21;99801.91;;;16.97;100.00
7168;BME280;3625;51.762;14.320;2023-07-29T04:21:52;100000.50;;;18.21;100.00
7168;BME280;3625;51.762;14.320;2023-07-29T04:24:21;99984.44;;;18.35;100.00
7168;BME280;3625;51.762;14.320;2023-07-29T04:27:00;99971.63;;;18.40;100.00
7168;BME280;3625;51.762;14.320;2023-07-29T04:29:32;99824.19;;;17.72;100.00
7168;BME280;3625;51.762;14.320;2023-07-29T04:32:03;99771.94;;;17.51;100.00
7168;BME280;3625;51.762;14.320;2023-07-29T04:34:39;99862.97;;;18.22;100.00
7168;BME280;3625;51.762;14.320;2023-07-29T04:37:08;99863.44;;;18.28;100.00
7168;BME280;3625;51.762;14.320;2023-07-29T04:39:51;99953.16;;;18.92;100.00
7168;BME280;3625;51.762;14.320;2023-07-29T04:42:19;99873.94;;;18.60;100.00
7168;BME280;3625;51.762;14.320;2023-07-29T04:44:53;99978.22;;;19.32;100.00
7168;BME280;3625;51.762;14.320;2023-07-29T04:47:21;99982.19;;;19.39;100.00
7168;BME280;3625;51.762;14.320;2023-07-29T04:49:56;99740.22;;;18.01;100.00
7168;BME280;3625;51.762;14.320;2023-07-29T04:52:29;99848.78;;;18.62;100.00
7168;BME280;3625;51.762;14.320;2023-07-29T04:54:57;99981.97;;;19.56;100.00
7168;BME280;3625;51.762;14.320;2023-07-29T04:57:28;99686.16;;;17.82;100.00
7168;BME280;3625;51.762;14.320;2023-07-29T04:59:59;99983.84;;;19.69;100.00
7168;BME280;3625;51.762;14.320;2023-07-29T05:02:28;99866.34;;;19.07;100.00
7168;BME280;3625;51.762;14.320;2023-07-29T05:05:02;99956.03;;;19.70;100.00
7168;BME280;3625;51.762;14.320;2023-07-29T05:07:35;99971.00;;;19.86;100.00
7168;BME280;3625;51.762;14.320;2023-07-29T05:10:12;99704.44;;;18.43;100.00
7168;BME280;3625;51.762;14.320;2023-07-29T05:12:41;99968.44;;;20.10;100.00
7168;BME280;3625;51.762;14.320;2023-07-29T05:15:12;99871.00;;;19.57;100.00
7168;BME280;3625;51.762;14.320;2023-07-29T05:17:47;99740.59;;;18.90;100.00
7168;BME280;3625;51.762;14.320;2023-07-29T05:20:17;99807.63;;;19.42;100.00
7168;BME280;3625;51.762;14.320;2023-07-29T05:22:48;99755.97;;;19.13;100.00
7168;BME280;3625;51.762;14.320;2023-07-29T05:25:28;99838.91;;;19.81;100.00
7168;BME280;3625;51.762;14.320;2023-07-29T05:28:02;99984.03;;;20.81;100.00
7168;BME280;3625;51.762;14.320;2023-07-29T05:30:37;99892.19;;;20.38;100.00
7168;BME280;3625;51.762;14.320;2023-07-29T05:33:09;99979.22;;;20.74;100.00
7168;BME280;3625;51.762;14.320;2023-07-29T05:35:42;99880.25;;;20.04;100.00
7168;BME280;3625;51.762;14.320;2023-07-29T05:38:11;99983.88;;;20.46;100.00
7168;BME280;3625;51.762;14.320;2023-07-29T05:40:41;99861.88;;;19.60;100.00
7168;BME280;3625;51.762;14.320;2023-07-29T05:43:17;99971.56;;;20.17;100.00
7168;BME280;3625;51.762;14.320;2023-07-29T05:45:45;99944.06;;;19.88;100.00
7168;BME280;3625;51.762;14.320;2023-07-29T05:48:20;99726.53;;;18.47;100.00
7168;BME280;3625;51.762;14.320;2023-07-29T05:51:00;99881.97;;;19.54;100.00
7168;BME280;3625;51.762;14.320;2023-07-29T05:53:35;99915.38;;;19.88;100.00
7168;BME280;3625;51.762;14.320;2023-07-29T05:56:06;99769.16;;;19.04;100.00
7168;BME280;3625;51.762;14.320;2023-07-29T05:58:36;99940.84;;;20.08;100.00
7168;BME280;3625;51.762;14.320;2023-07-29T06:01:09;99992.22;;;20.42;100.00
7168;BME280;3625;51.762;14.320;2023-07-29T06:03:46;99878.09;;;19.71;100.00
7168;BME280;3625;51.762;14.320;2023-07-29T06:06:17;99719.25;;;18.89;100.00
7168;BME280;3625;51.762;14.320;2023-07-29T06:08:46;99729.47;;;18.96;100.00
7168;BME280;3625;51.762;14.320;2023-07-29T06:11:14;99816.69;;;19.54;100.00
7168;BME280;3625;51.762;14.320;2023-07-29T06:13:47;99942.59;;;20.34;100.00
7168;BME280;3625;51.762;14.320;2023-07-29T06:16:18;99964.59;;;20.52;100.00
7168;BME280;3625;51.762;14.320;2023-07-29T06:18:47;99981.25;;;20.70;100.00
7168;BME280;3625;51.762;14.320;2023-07-29T06:21:28;99971.78;;;20.77;100.00
7168;BME280;3625;51.762;14.320;2023-07-29T06:23:56;99967.69;;;20.84;100.00
7168;BME280;3625;51.762;14.320;2023-07-29T06:26:27;99967.00;;;20.93;100.00
7168;BME280;3625;51.762;14.320;2023-07-29T06:28:56;99905.78;;;20.60;100.00
7168;BME280;3625;51.762;14.320;2023-07-29T06:31:26;99955.84;;;21.10;100.00
7168;BME280;3625;51.762;14.320;2023-07-29T06:34:03;99756.09;;;20.01;100.00
7168;BME280;3625;51.762;14.320;2023-07-29T06:36:34;99927.59;;;21.18;100.00
7168;BME280;3625;51.762;14.320;2023-07-29T06:39:03;99943.84;;;21.40;100.00
7168;BME280;3625;51.762;14.320;2023-07-29T06:41:32;99905.00;;;21.31;100.00
7168;BME280;3625;51.762;14.320;2023-07-29T06:44:04;99937.94;;;21.59;100.00
7168;BME280;3625;51.762;14.320;2023-07-29T06:46:33;99910.72;;;21.51;100.00
7168;BME280;3625;51.762;14.320;2023-07-29T06:49:02;99909.50;;;21.55;100.00
7168;BME280;3625;51.762;14.320;2023-07-29T06:51:30;99938.09;;;21.79;100.00
7168;BME280;3625;51.762;14.320;2023-07-29T06:54:13;99791.38;;;21.04;100.00
7168;BME280;3625;51.762;14.320;2023-07-29T06:56:48;99929.16;;;22.03;100.00
7168;BME280;3625;51.762;14.320;2023-07-29T06:59:18;99837.47;;;21.58;100.00
7168;BME280;3625;51.762;14.320;2023-07-29T07:01:52;99741.03;;;21.06;100.00
7168;BME280;3625;51.762;14.320;2023-07-29T07:04:26;99689.03;;;20.94;100.00
7168;BME280;3625;51.762;14.320;2023-07-29T07:06:56;99951.13;;;22.87;100.00
7168;BME280;3625;51.762;14.320;2023-07-29T07:09:30;99900.66;;;23.21;100.00
7168;BME280;3625;51.762;14.320;2023-07-29T07:11:58;99950.91;;;23.77;100.00
7168;BME280;3625;51.762;14.320;2023-07-29T07:14:27;99938.91;;;23.90;100.00
7168;BME280;3625;51.762;14.320;2023-07-29T07:16:55;99944.84;;;24.26;100.00
7168;BME280;3625;51.762;14.320;2023-07-29T07:19:24;99969.00;;;25.09;100.00
7168;BME280;3625;51.762;14.320;2023-07-29T07:21:52;99970.56;;;25.71;100.00
7168;BME280;3625;51.762;14.320;2023-07-29T07:24:22;99964.56;;;25.96;100.00
7168;BME280;3625;51.762;14.320;2023-07-29T07:26:51;99823.97;;;25.35;99.77
7168;BME280;3625;51.762;14.320;2023-07-29T07:29:20;99987.69;;;26.00;91.37
7168;BME280;3625;51.762;14.320;2023-07-29T07:31:53;99908.81;;;25.65;96.46
7168;BME280;3625;51.762;14.320;2023-07-29T07:34:25;99984.81;;;26.11;93.24
7168;BME280;3625;51.762;14.320;2023-07-29T07:36:53;99861.72;;;25.46;89.36
7168;BME280;3625;51.762;14.320;2023-07-29T07:39:22;99957.66;;;26.30;85.26
7168;BME280;3625;51.762;14.320;2023-07-29T07:41:52;99906.59;;;26.07;81.15
7168;BME280;3625;51.762;14.320;2023-07-29T07:44:20;99793.88;;;25.38;81.99
7168;BME280;3625;51.762;14.320;2023-07-29T07:46:51;99913.84;;;26.35;81.41
7168;BME280;3625;51.762;14.320;2023-07-29T07:49:21;99985.91;;;26.94;82.38
7168;BME280;3625;51.762;14.320;2023-07-29T07:51:52;99983.00;;;27.05;80.36
7168;BME280;3625;51.762;14.320;2023-07-29T07:54:24;99891.75;;;26.85;81.27
7168;BME280;3625;51.762;14.320;2023-07-29T07:56:54;99991.44;;;27.57;79.46
7168;BME280;3625;51.762;14.320;2023-07-29T07:59:22;99974.50;;;27.63;77.47
7168;BME280;3625;51.762;14.320;2023-07-29T08:01:51;99979.00;;;27.27;77.74
7168;BME280;3625;51.762;14.320;2023-07-29T08:04:20;99794.28;;;25.63;80.50
7168;BME280;3625;51.762;14.320;2023-07-29T08:06:49;99930.00;;;26.27;81.61
7168;BME280;3625;51.762;14.320;2023-07-29T08:09:20;99850.72;;;25.86;81.15
7168;BME280;3625;51.762;14.320;2023-07-29T08:12:01;99905.00;;;26.23;79.68
7168;BME280;3625;51.762;14.320;2023-07-29T08:14:35;99975.34;;;26.91;77.36
7168;BME280;3625;51.762;14.320;2023-07-29T08:17:12;99978.47;;;26.86;76.01
7168;BME280;3625;51.762;14.320;2023-07-29T08:19:41;99929.75;;;26.85;77.82
7168;BME280;3625;51.762;14.320;2023-07-29T08:22:12;99853.91;;;26.56;77.72
7168;BME280;3625;51.762;14.320;2023-07-29T08:24:41;99936.88;;;26.95;77.83
7168;BME280;3625;51.762;14.320;2023-07-29T08:27:11;99927.59;;;26.61;77.62
7168;BME280;3625;51.762;14.320;2023-07-29T08:29:41;99754.84;;;25.22;77.51
7168;BME280;3625;51.762;14.320;2023-07-29T08:32:10;99935.19;;;25.82;78.29
7168;BME280;3625;51.762;14.320;2023-07-29T08:34:39;99812.56;;;24.93;79.28
7168;BME280;3625;51.762;14.320;2023-07-29T08:37:10;99763.94;;;24.63;81.12
7168;BME280;3625;51.762;14.320;2023-07-29T08:39:40;99925.34;;;25.62;81.29
7168;BME280;3625;51.762;14.320;2023-07-29T08:42:17;99848.63;;;25.03;80.29
7168;BME280;3625;51.762;14.320;2023-07-29T08:44:49;99683.91;;;23.82;81.77
7168;BME280;3625;51.762;14.320;2023-07-29T08:47:21;99929.28;;;25.19;83.37
7168;BME280;3625;51.762;14.320;2023-07-29T08:49:57;99915.88;;;25.27;82.93
7168;BME280;3625;51.762;14.320;2023-07-29T08:52:30;99928.06;;;25.71;80.56
7168;BME280;3625;51.762;14.320;2023-07-29T08:55:20;99804.72;;;25.19;78.17
7168;BME280;3625;51.762;14.320;2023-07-29T08:57:56;99838.88;;;25.87;77.30
7168;BME280;3625;51.762;14.320;2023-07-29T09:00:31;99914.06;;;26.51;75.84
7168;BME280;3625;51.762;14.320;2023-07-29T09:03:01;99923.75;;;26.91;74.38
7168;BME280;3625;51.762;14.320;2023-07-29T09:05:38;99918.81;;;27.04;69.63
7168;BME280;3625;51.762;14.320;2023-07-29T09:08:09;99798.47;;;26.58;70.03
7168;BME280;3625;51.762;14.320;2023-07-29T09:10:40;99840.59;;;27.08;66.89
7168;BME280;3625;51.762;14.320;2023-07-29T09:13:15;99805.28;;;27.08;67.13
7168;BME280;3625;51.762;14.320;2023-07-29T09:15:46;99927.22;;;28.17;66.43
7168;BME280;3625;51.762;14.320;2023-07-29T09:18:17;99744.75;;;27.33;63.64
7168;BME280;3625;51.762;14.320;2023-07-29T09:20:52;99800.06;;;27.67;60.95
7168;BME280;3625;51.762;14.320;2023-07-29T09:23:21;99936.75;;;28.47;60.82
7168;BME280;3625;51.762;14.320;2023-07-29T09:26:02;99852.44;;;28.03;60.59
7168;BME280;3625;51.762;14.320;2023-07-29T09:28:35;99870.56;;;28.46;60.87
7168;BME280;3625;51.762;14.320;2023-07-29T09:31:05;99832.00;;;28.51;58.35
7168;BME280;3625;51.762;14.320;2023-07-29T09:33:36;99826.09;;;28.72;57.64
7168;BME280;3625;51.762;14.320;2023-07-29T09:36:09;99930.75;;;29.78;55.40
7168;BME280;3625;51.762;14.320;2023-07-29T09:38:45;99927.00;;;30.03;53.15
7168;BME280;3625;51.762;14.320;2023-07-29T09:41:15;99923.41;;;30.11;50.32
7168;BME280;3625;51.762;14.320;2023-07-29T09:43:46;99927.81;;;30.52;49.10
7168;BME280;3625;51.762;14.320;2023-07-29T09:46:14;99923.59;;;30.81;46.37
7168;BME280;3625;51.762;14.320;2023-07-29T09:48:43;99879.84;;;30.89;47.77
7168;BME280;3625;51.762;14.320;2023-07-29T09:51:15;99907.63;;;31.08;46.93
7168;BME280;3625;51.762;14.320;2023-07-29T09:53:46;99911.91;;;31.11;46.71
7168;BME280;3625;51.762;14.320;2023-07-29T09:56:15;99888.59;;;30.84;46.56
7168;BME280;3625;51.762;14.320;2023-07-29T09:58:48;99905.53;;;30.16;46.28
7168;BME280;3625;51.762;14.320;2023-07-29T10:01:17;99902.28;;;30.05;46.96
7168;BME280;3625;51.762;14.320;2023-07-29T10:03:47;99892.72;;;29.76;47.25
7168;BME280;3625;51.762;14.320;2023-07-29T10:06:18;99652.50;;;28.25;48.17
7168;BME280;3625;51.762;14.320;2023-07-29T10:08:50;99870.25;;;29.66;48.24
7168;BME280;3625;51.762;14.320;2023-07-29T10:11:21;99897.69;;;30.05;48.11
7168;BME280;3625;51.762;14.320;2023-07-29T10:13:54;99897.78;;;30.36;48.22
7168;BME280;3625;51.762;14.320;2023-07-29T10:16:36;99892.28;;;30.60;47.15
7168;BME280;3625;51.762;14.320;2023-07-29T10:19:08;99892.19;;;30.85;46.86
7168;BME280;3625;51.762;14.320;2023-07-29T10:21:39;99842.28;;;30.60;45.77
7168;BME280;3625;51.762;14.320;2023-07-29T10:24:19;99891.38;;;30.76;44.69
7168;BME280;3625;51.762;14.320;2023-07-29T10:27:19;99736.72;;;29.89;45.33
7168;BME280;3625;51.762;14.320;2023-07-29T10:29:57;99808.50;;;30.45;44.91
7168;BME280;3625;51.762;14.320;2023-07-29T10:32:30;99896.53;;;31.10;44.83
7168;BME280;3625;51.762;14.320;2023-07-29T10:35:02;99775.31;;;30.33;44.33
7168;BME280;3625;51.762;14.320;2023-07-29T10:37:31;99883.13;;;30.84;43.88
7168;BME280;3625;51.762;14.320;2023-07-29T10:40:06;99793.34;;;30.42;44.40
7168;BME280;3625;51.762;14.320;2023-07-29T10:42:35;99884.50;;;31.19;44.20
7168;BME280;3625;51.762;14.320;2023-07-29T10:45:20;99798.97;;;30.80;43.00
7168;BME280;3625;51.762;14.320;2023-07-29T10:47:50;99875.69;;;31.32;43.67
7168;BME280;3625;51.762;14.320;2023-07-29T10:50:23;99788.25;;;31.01;43.82
7168;BME280;3625;51.762;14.320;2023-07-29T10:52:57;99871.63;;;31.50;43.17
7168;BME280;3625;51.762;14.320;2023-07-29T10:55:28;99839.63;;;31.14;43.23
7168;BME280;3625;51.762;14.320;2023-07-29T10:58:11;99750.03;;;30.39;42.74
7168;BME280;3625;51.762;14.320;2023-07-29T11:00:49;99867.44;;;31.17;43.33
7168;BME280;3625;51.762;14.320;2023-07-29T11:03:18;99867.13;;;31.35;42.89
7168;BME280;3625;51.762;14.320;2023-07-29T11:05:53;99674.81;;;30.06;42.25
7168;BME280;3625;51.762;14.320;2023-07-29T11:08:28;99615.06;;;30.11;41.86
7168;BME280;3625;51.762;14.320;2023-07-29T11:11:18;99607.44;;;30.06;40.59
7168;BME280;3625;51.762;14.320;2023-07-29T11:13:48;99848.84;;;31.35;41.63
7168;BME280;3625;51.762;14.320;2023-07-29T11:16:23;99757.31;;;30.47;42.38
7168;BME280;3625;51.762;14.320;2023-07-29T11:18:53;99837.38;;;30.86;43.22
7168;BME280;3625;51.762;14.320;2023-07-29T11:21:25;99838.38;;;30.46;42.49
7168;BME280;3625;51.762;14.320;2023-07-29T11:24:09;99583.84;;;28.80;42.63
7168;BME280;3625;51.762;14.320;2023-07-29T11:27:04;99833.19;;;30.20;42.80
7168;BME280;3625;51.762;14.320;2023-07-29T11:29:34;99588.59;;;28.78;43.13
7168;BME280;3625;51.762;14.320;2023-07-29T11:32:05;99805.22;;;30.18;43.05
7168;BME280;3625;51.762;14.320;2023-07-29T11:34:40;99826.25;;;30.57;42.37
7168;BME280;3625;51.762;14.320;2023-07-29T11:37:12;99753.38;;;30.49;41.97
7168;BME280;3625;51.762;14.320;2023-07-29T11:39:43;99815.66;;;31.16;41.01
7168;BME280;3625;51.762;14.320;2023-07-29T11:42:33;99646.38;;;30.54;40.49
7168;BME280;3625;51.762;14.320;2023-07-29T11:45:16;99502.50;;;30.17;40.23
7168;BME280;3625;51.762;14.320;2023-07-29T11:47:51;99704.38;;;31.76;39.54
7168;BME280;3625;51.762;14.320;2023-07-29T11:50:24;99699.44;;;31.57;39.27
7168;BME280;3625;51.762;14.320;2023-07-29T11:52:54;99689.75;;;31.17;39.62
7168;BME280;3625;51.762;14.320;2023-07-29T11:55:25;99803.13;;;31.67;39.96
7168;BME280;3625;51.762;14.320;2023-07-29T11:57:54;99789.28;;;31.83;40.28
7168;BME280;3625;51.762;14.320;2023-07-29T12:00:23;99797.16;;;32.15;39.59
7168;BME280;3625;51.762;14.320;2023-07-29T12:02:54;99804.53;;;32.30;38.80
7168;BME280;3625;51.762;14.320;2023-07-29T12:05:24;99712.78;;;31.75;39.31
7168;BME280;3625;51.762;14.320;2023-07-29T12:07:53;99623.13;;;31.18;39.41
7168;BME280;3625;51.762;14.320;2023-07-29T12:10:25;99773.25;;;31.80;39.65
7168;BME280;3625;51.762;14.320;2023-07-29T12:12:59;99778.03;;;31.40;40.34
7168;BME280;3625;51.762;14.320;2023-07-29T12:15:31;99622.56;;;30.39;40.66
7168;BME280;3625;51.762;14.320;2023-07-29T12:18:01;99772.56;;;31.40;40.60
7168;BME280;3625;51.762;14.320;2023-07-29T12:20:30;99757.78;;;31.72;40.04
7168;BME280;3625;51.762;14.320;2023-07-29T12:23:00;99774.13;;;31.95;39.88
7168;BME280;3625;51.762;14.320;2023-07-29T12:25:30;99768.56;;;31.89;39.67
7168;BME280;3625;51.762;14.320;2023-07-29T12:28:03;99721.47;;;31.26;40.04
7168;BME280;3625;51.762;14.320;2023-07-29T12:30:32;99760.72;;;31.10;39.83
7168;BME280;3625;51.762;14.320;2023-07-29T12:33:02;99696.31;;;30.31;41.04
7168;BME280;3625;51.762;14.320;2023-07-29T12:35:36;99740.25;;;30.45;41.72
7168;BME280;3625;51.762;14.320;2023-07-29T12:38:05;99724.91;;;30.13;42.48
7168;BME280;3625;51.762;14.320;2023-07-29T12:40:38;99667.25;;;29.69;42.72
7168;BME280;3625;51.762;14.320;2023-07-29T12:43:09;99735.50;;;30.08;42.92
7168;BME280;3625;51.762;14.320;2023-07-29T12:45:38;99691.75;;;29.77;42.85
7168;BME280;3625;51.762;14.320;2023-07-29T12:48:11;99731.47;;;29.79;43.41
7168;BME280;3625;51.762;14.320;2023-07-29T12:50:39;99734.38;;;29.78;44.04
7168;BME280;3625;51.762;14.320;2023-07-29T12:53:09;99714.16;;;30.11;43.95
7168;BME280;3625;51.762;14.320;2023-07-29T12:55:38;99633.56;;;30.00;42.99
7168;BME280;3625;51.762;14.320;2023-07-29T12:58:07;99728.75;;;30.65;42.85
7168;BME280;3625;51.762;14.320;2023-07-29T13:00:35;99737.06;;;30.72;42.52
7168;BME280;3625;51.762;14.320;2023-07-29T13:03:04;99726.75;;;30.59;42.74
7168;BME280;3625;51.762;14.320;2023-07-29T13:05:34;99735.31;;;30.48;43.29
7168;BME280;3625;51.762;14.320;2023-07-29T13:08:03;99726.81;;;30.43;43.22
7168;BME280;3625;51.762;14.320;2023-07-29T13:10:32;99724.19;;;30.19;43.66
7168;BME280;3625;51.762;14.320;2023-07-29T13:13:00;99725.13;;;29.87;44.54
7168;BME280;3625;51.762;14.320;2023-07-29T13:15:29;99638.56;;;29.17;44.42
7168;BME280;3625;51.762;14.320;2023-07-29T13:17:58;99693.06;;;29.25;45.06
7168;BME280;3625;51.762;14.320;2023-07-29T13:20:28;99693.06;;;28.93;46.14
7168;BME280;3625;51.762;14.320;2023-07-29T13:22:58;99671.88;;;28.30;46.96
7168;BME280;3625;51.762;14.320;2023-07-29T13:25:27;99709.72;;;28.15;48.57
7168;BME280;3625;51.762;14.320;2023-07-29T13:27:56;99667.34;;;27.63;49.79
7168;BME280;3625;51.762;14.320;2023-07-29T13:30:24;99641.19;;;27.36;50.60
7168;BME280;3625;51.762;14.320;2023-07-29T13:32:53;99737.03;;;27.98;49.13